Time;durP1;ratioP1;P1;durP2;ratioP2;P2;SDS_P1;SDS_P2;PMS_P1;PMS_P2;Temp;Humidity;BMP_temperature;BMP_pressure;BME280_temperature;BME280_humidity;BME280_pressure;Samples;Min_cycle;Max_cycle;Signal;HPM_P1;HPM_P2
2022/07/10 00:02:14;;;;;;;2.00;1.27;;;13.90;99.90;;;;;;4978195;28;20182;-73
2022/07/10 00:04:40;;;;;;;1.80;1.10;;;13.90;99.90;;;;;;4961187;28;20539;-73
2022/07/10 00:07:06;;;;;;;5.27;1.30;;;14.00;99.90;;;;;;4978594;28;20539;-74
2022/07/10 00:09:31;;;;;;;5.87;0.90;;;14.00;99.90;;;;;;4977929;28;20202;-75
2022/07/10 00:11:57;;;;;;;2.00;0.70;;;14.00;99.90;;;;;;4977807;28;20199;-75
2022/07/10 00:14:22;;;;;;;1.10;1.00;;;14.00;99.90;;;;;;4977372;28;20172;-74
2022/07/10 00:16:48;;;;;;;1.30;1.20;;;14.00;99.90;;;;;;4977279;28;20178;-74
2022/07/10 00:19:14;;;;;;;1.90;0.80;;;14.00;99.90;;;;;;4976607;28;20244;-74
2022/07/10 00:21:39;;;;;;;7.07;1.10;;;14.10;99.90;;;;;;4976599;28;20233;-74
2022/07/10 00:24:05;;;;;;;5.43;1.27;;;14.10;99.90;;;;;;4975497;28;20315;-73
2022/07/10 00:26:30;;;;;;;6.20;1.53;;;14.10;99.90;;;;;;4975237;28;20265;-74
2022/07/10 00:28:56;;;;;;;1.60;0.83;;;14.10;99.90;;;;;;4975335;28;20256;-74
2022/07/10 00:31:22;;;;;;;1.50;1.10;;;14.10;99.90;;;;;;4975562;28;20292;-72
2022/07/10 00:33:48;;;;;;;1.67;1.00;;;14.10;99.90;;;;;;4975274;28;20192;-75
2022/07/10 00:36:14;;;;;;;2.63;0.97;;;14.20;99.90;;;;;;4975132;28;20166;-75
2022/07/10 00:38:40;;;;;;;1.00;0.73;;;14.10;99.90;;;;;;4975036;28;20236;-74
2022/07/10 00:41:05;;;;;;;2.23;0.80;;;14.20;99.90;;;;;;4975109;28;20441;-74
2022/07/10 00:43:58;;;;;;;1.27;0.83;;;14.20;99.90;;;;;;4975281;28;20192;-74
2022/07/10 00:46:25;;;;;;;5.57;1.00;;;14.20;99.90;;;;;;4957573;28;20221;-74
2022/07/10 00:48:51;;;;;;;2.93;1.77;;;14.20;99.90;;;;;;4975065;28;20460;-74
2022/07/10 00:51:18;;;;;;;3.70;1.33;;;14.20;99.90;;;;;;4975021;28;20443;-74
2022/07/10 00:53:49;;;;;;;1.30;0.73;;;14.20;99.90;;;;;;4975673;28;20514;-74
2022/07/10 00:56:20;;;;;;;4.10;1.20;;;14.20;99.90;;;;;;4975502;28;20409;-74
2022/07/10 00:58:47;;;;;;;1.17;0.87;;;14.20;99.90;;;;;;4977535;28;20420;-74
2022/07/10 01:01:13;;;;;;;1.00;0.80;;;14.20;99.90;;;;;;4979048;28;20425;-73
2022/07/10 01:03:39;;;;;;;3.33;0.90;;;14.20;99.90;;;;;;4975947;28;20485;-74
2022/07/10 01:06:05;;;;;;;2.90;1.30;;;14.20;99.90;;;;;;4973248;28;20469;-75
2022/07/10 01:08:30;;;;;;;2.40;1.07;;;14.20;99.90;;;;;;4974151;28;20248;-73
2022/07/10 01:10:57;;;;;;;1.17;0.80;;;14.20;99.90;;;;;;4974821;28;20186;-75
2022/07/10 01:13:22;;;;;;;4.20;0.90;;;14.20;99.90;;;;;;4975108;28;20177;-76
2022/07/10 01:15:48;;;;;;;0.80;0.73;;;14.20;99.90;;;;;;4974668;28;20393;-75
2022/07/10 01:18:14;;;;;;;3.53;0.90;;;14.20;99.90;;;;;;4974736;28;20224;-74
2022/07/10 01:20:40;;;;;;;1.80;0.93;;;14.20;99.90;;;;;;4974554;28;20425;-74
2022/07/10 01:23:06;;;;;;;0.80;0.80;;;14.20;99.90;;;;;;4957335;28;20408;-74
2022/07/10 01:25:32;;;;;;;2.20;0.93;;;14.20;99.90;;;;;;4979199;28;20786;-73
2022/07/10 01:27:58;;;;;;;2.53;0.80;;;14.20;99.90;;;;;;4976875;28;20193;-73
2022/07/10 01:30:24;;;;;;;3.53;0.87;;;14.10;99.90;;;;;;4973983;28;20537;-75
2022/07/10 01:32:50;;;;;;;1.43;1.13;;;14.10;99.90;;;;;;4974235;28;20764;-75
2022/07/10 01:35:16;;;;;;;2.10;0.90;;;14.10;99.90;;;;;;4973994;28;20495;-74
2022/07/10 01:37:41;;;;;;;2.10;0.80;;;14.10;99.90;;;;;;4973360;28;20205;-74
2022/07/10 01:40:08;;;;;;;3.03;1.00;;;14.10;99.90;;;;;;4956465;28;20598;-74
2022/07/10 01:42:34;;;;;;;1.57;0.97;;;14.10;99.90;;;;;;4974134;28;20201;-75
2022/07/10 01:45:00;;;;;;;2.03;1.07;;;14.10;99.90;;;;;;4973935;28;20429;-74
2022/07/10 01:47:27;;;;;;;1.90;0.80;;;14.10;99.90;;;;;;4974008;28;20174;-74
2022/07/10 01:49:53;;;;;;;2.03;1.10;;;14.10;99.90;;;;;;4974310;28;20182;-75
2022/07/10 01:52:19;;;;;;;1.43;0.80;;;14.10;99.90;;;;;;4974120;28;20804;-74
2022/07/10 01:54:46;;;;;;;1.80;0.80;;;14.10;99.90;;;;;;4956239;28;20412;-76
2022/07/10 01:57:11;;;;;;;0.87;0.63;;;14.10;99.90;;;;;;4973615;28;20753;-73
2022/07/10 01:59:37;;;;;;;5.00;0.80;;;14.10;99.90;;;;;;4973643;28;20405;-73
2022/07/10 02:02:03;;;;;;;3.10;0.87;;;14.10;99.90;;;;;;4973473;28;20209;-73
2022/07/10 02:04:44;;;;;;;4.30;0.90;;;14.10;99.90;;;;;;4973697;28;20178;-74
2022/07/10 02:07:10;;;;;;;4.47;1.00;;;14.00;99.90;;;;;;4973701;28;20192;-74
2022/07/10 02:09:36;;;;;;;0.60;0.60;;;14.00;99.90;;;;;;4973483;28;20467;-74
2022/07/10 02:12:02;;;;;;;4.87;0.80;;;14.00;99.90;;;;;;4973545;28;20858;-74
2022/07/10 02:14:28;;;;;;;3.37;0.90;;;14.00;99.90;;;;;;4973164;28;20223;-74
2022/07/10 02:16:53;;;;;;;0.60;0.60;;;14.00;99.90;;;;;;4973177;28;20812;-74
2022/07/10 02:19:19;;;;;;;1.00;0.80;;;14.00;99.90;;;;;;4973354;28;20433;-74
2022/07/10 02:21:46;;;;;;;1.50;0.70;;;14.00;99.90;;;;;;4973182;28;20236;-74
2022/07/10 02:24:11;;;;;;;1.63;0.93;;;14.00;99.90;;;;;;4973601;28;20193;-75
2022/07/10 02:26:37;;;;;;;1.17;0.70;;;14.00;99.90;;;;;;4973540;28;20452;-73
2022/07/10 02:29:03;;;;;;;1.20;0.80;;;13.90;99.90;;;;;;4973416;28;20671;-74
2022/07/10 02:31:28;;;;;;;1.27;0.80;;;13.90;99.90;;;;;;4972887;28;20209;-74
2022/07/10 02:33:54;;;;;;;1.53;0.80;;;13.90;99.90;;;;;;4973061;28;20185;-74
2022/07/10 02:36:19;;;;;;;3.07;0.93;;;13.90;99.90;;;;;;4973006;28;20757;-74
2022/07/10 02:38:45;;;;;;;0.70;0.70;;;13.90;99.90;;;;;;4972991;28;20720;-74
2022/07/10 02:41:11;;;;;;;1.47;0.77;;;13.80;99.90;;;;;;4972902;28;20575;-74
2022/07/10 02:43:36;;;;;;;0.90;0.80;;;13.80;99.90;;;;;;4972977;28;20552;-74
2022/07/10 02:46:03;;;;;;;4.50;1.17;;;13.70;99.90;;;;;;4972646;28;20181;-75
2022/07/10 02:48:28;;;;;;;3.33;1.10;;;13.60;99.90;;;;;;4971885;28;20206;-74
2022/07/10 02:50:54;;;;;;;1.33;1.10;;;13.70;99.90;;;;;;4972730;28;20547;-75
2022/07/10 02:53:19;;;;;;;1.13;0.90;;;13.70;99.90;;;;;;4972901;28;20173;-74
2022/07/10 02:55:45;;;;;;;2.80;0.90;;;13.60;99.90;;;;;;4973244;28;20719;-74
2022/07/10 02:58:11;;;;;;;2.43;0.87;;;13.60;99.90;;;;;;4955571;28;20240;-74
2022/07/10 03:00:37;;;;;;;0.70;0.70;;;13.60;99.90;;;;;;4972876;28;20193;-73
2022/07/10 03:03:03;;;;;;;3.40;1.27;;;13.60;99.90;;;;;;4972744;28;20417;-74
2022/07/10 03:05:28;;;;;;;1.10;0.87;;;13.50;99.90;;;;;;4972930;28;20417;-74
2022/07/10 03:07:54;;;;;;;3.00;1.17;;;13.50;99.90;;;;;;4973022;28;20209;-73
2022/07/10 03:10:20;;;;;;;0.60;0.60;;;13.50;99.90;;;;;;4974742;28;20671;-74
2022/07/10 03:12:46;;;;;;;1.03;0.80;;;13.50;99.90;;;;;;4978052;28;20409;-73
2022/07/10 03:15:12;;;;;;;1.67;0.73;;;13.50;99.90;;;;;;4974502;28;20185;-75
2022/07/10 03:17:38;;;;;;;2.30;0.90;;;13.50;99.90;;;;;;4972808;28;20464;-74
2022/07/10 03:20:04;;;;;;;1.10;0.80;;;13.50;99.90;;;;;;4972641;28;20447;-74
2022/07/10 03:22:30;;;;;;;1.87;0.70;;;13.50;99.90;;;;;;4972630;28;20219;-73
2022/07/10 03:24:56;;;;;;;3.07;0.93;;;13.50;99.90;;;;;;4972368;28;20923;-73
2022/07/10 03:27:21;;;;;;;6.43;0.87;;;13.50;99.90;;;;;;4971408;28;20452;-75
2022/07/10 03:29:47;;;;;;;1.23;0.80;;;13.40;99.90;;;;;;4972860;28;20200;-74
2022/07/10 03:32:13;;;;;;;1.63;1.10;;;13.40;99.90;;;;;;4972627;28;20240;-74
2022/07/10 03:34:38;;;;;;;1.47;0.57;;;13.50;99.90;;;;;;4973461;28;20664;-75
2022/07/10 03:37:04;;;;;;;0.90;0.80;;;13.50;99.90;;;;;;4973148;28;20265;-75
2022/07/10 03:39:30;;;;;;;1.40;0.90;;;13.40;99.90;;;;;;4972803;28;20185;-75
2022/07/10 03:41:55;;;;;;;2.77;0.87;;;13.40;99.90;;;;;;4972603;28;20782;-75
2022/07/10 03:44:21;;;;;;;3.87;1.40;;;13.50;99.90;;;;;;4972524;28;20256;-74
2022/07/10 03:46:46;;;;;;;1.47;0.80;;;13.50;99.90;;;;;;4972401;28;20181;-74
2022/07/10 03:49:12;;;;;;;2.27;0.77;;;13.50;99.90;;;;;;4972515;28;20554;-74
2022/07/10 03:51:37;;;;;;;1.87;0.87;;;13.50;99.90;;;;;;4972716;28;20194;-75
2022/07/10 03:54:03;;;;;;;5.10;1.00;;;13.50;99.90;;;;;;4973162;28;20899;-73
2022/07/10 03:59:13;;;;;;;1.80;1.00;;;13.50;99.90;;;;;;4972521;28;20188;-75
2022/07/10 04:01:38;;;;;;;4.00;0.80;;;13.50;99.90;;;;;;4975724;28;20433;-75
2022/07/10 04:04:04;;;;;;;1.87;0.90;;;13.60;99.90;;;;;;4975688;28;20170;-73
2022/07/10 04:06:29;;;;;;;1.57;0.70;;;13.50;99.90;;;;;;4975565;28;20571;-74
2022/07/10 04:08:55;;;;;;;3.87;0.80;;;13.60;99.90;;;;;;4975597;28;20190;-74
2022/07/10 04:11:20;;;;;;;0.83;0.70;;;13.60;99.90;;;;;;4975696;28;20190;-73
2022/07/10 04:13:46;;;;;;;1.90;0.80;;;13.70;99.90;;;;;;4976268;28;20170;-75
2022/07/10 04:16:12;;;;;;;0.80;0.80;;;13.60;99.90;;;;;;4976648;28;20656;-74
2022/07/10 04:18:42;;;;;;;9.93;1.00;;;13.60;99.90;;;;;;4976458;28;20609;-74
2022/07/10 04:21:08;;;;;;;1.13;1.03;;;13.60;99.90;;;;;;4975680;28;20908;-74
2022/07/10 04:23:34;;;;;;;1.00;0.90;;;13.70;99.90;;;;;;4975388;28;20908;-74
2022/07/10 04:26:00;;;;;;;0.97;0.87;;;13.70;99.90;;;;;;4975126;28;20416;-74
2022/07/10 04:28:25;;;;;;;1.17;0.87;;;13.70;99.90;;;;;;4975344;28;20197;-73
2022/07/10 04:30:51;;;;;;;3.90;0.90;;;13.70;99.90;;;;;;4975201;28;20540;-74
2022/07/10 04:33:17;;;;;;;2.50;0.93;;;13.60;99.90;;;;;;4975378;28;20248;-74
2022/07/10 04:35:42;;;;;;;2.80;1.10;;;13.60;99.90;;;;;;4975161;28;20165;-74
2022/07/10 04:38:08;;;;;;;6.03;1.60;;;13.60;99.90;;;;;;4975186;28;20620;-74
2022/07/10 04:40:34;;;;;;;9.20;4.63;;;13.70;99.90;;;;;;4975309;28;20190;-74
2022/07/10 04:42:59;;;;;;;2.40;1.00;;;13.70;99.90;;;;;;4975345;28;20201;-73
2022/07/10 04:45:25;;;;;;;5.50;0.80;;;13.60;99.90;;;;;;4963569;28;20175;-74
2022/07/10 04:47:51;;;;;;;1.20;1.00;;;13.70;99.90;;;;;;4967601;28;20169;-74
2022/07/10 04:50:16;;;;;;;1.17;1.00;;;13.90;99.90;;;;;;4956905;28;20531;-76
2022/07/10 04:52:42;;;;;;;1.97;0.80;;;13.80;99.90;;;;;;4971108;28;20625;-75
2022/07/10 04:55:08;;;;;;;3.70;1.50;;;13.90;99.90;;;;;;4970802;28;20178;-75
2022/07/10 04:57:33;;;;;;;1.63;1.07;;;13.90;99.90;;;;;;4978169;28;20212;-74
2022/07/10 04:59:59;;;;;;;10.30;3.30;;;14.00;99.90;;;;;;4970022;28;20432;-73
2022/07/10 05:02:25;;;;;;;6.63;1.20;;;14.00;99.90;;;;;;4975392;28;20166;-74
2022/07/10 05:04:50;;;;;;;2.10;1.13;;;14.00;99.90;;;;;;4974744;28;20511;-74
2022/07/10 05:07:16;;;;;;;2.03;1.10;;;14.00;99.90;;;;;;4974770;28;20193;-74
2022/07/10 05:09:41;;;;;;;4.27;1.30;;;14.20;99.90;;;;;;4974465;28;20201;-74
2022/07/10 05:12:07;;;;;;;3.33;1.10;;;14.10;99.90;;;;;;4973712;28;20205;-74
2022/07/10 05:14:33;;;;;;;2.67;1.30;;;14.00;99.90;;;;;;4974446;28;20166;-74
2022/07/10 05:16:59;;;;;;;1.80;1.00;;;14.00;99.90;;;;;;4974802;28;20409;-74
2022/07/10 05:19:24;;;;;;;3.70;0.80;;;14.00;99.90;;;;;;4974525;28;20245;-75
2022/07/10 05:21:50;;;;;;;1.53;1.00;;;14.10;99.90;;;;;;4974442;28;20272;-73
2022/07/10 05:24:15;;;;;;;5.40;0.90;;;14.10;99.90;;;;;;4973286;28;20807;-74
2022/07/10 05:26:41;;;;;;;3.93;1.57;;;14.00;99.90;;;;;;4974157;28;20687;-73
2022/07/10 05:29:07;;;;;;;1.40;1.30;;;14.10;99.90;;;;;;4974225;28;20449;-74
2022/07/10 05:31:32;;;;;;;4.37;1.60;;;14.30;99.90;;;;;;4956977;28;20205;-75
2022/07/10 05:33:58;;;;;;;3.17;1.47;;;14.30;99.90;;;;;;4974204;28;20176;-74
2022/07/10 05:36:24;;;;;;;1.63;1.00;;;14.50;99.90;;;;;;4974241;28;20178;-74
2022/07/10 05:38:50;;;;;;;2.97;1.40;;;14.60;99.90;;;;;;4974293;28;20174;-74
2022/07/10 05:41:15;;;;;;;2.27;1.10;;;14.70;99.90;;;;;;4974453;28;20424;-75
2022/07/10 05:43:41;;;;;;;3.30;1.00;;;14.80;99.90;;;;;;4974524;28;20643;-74
2022/07/10 05:46:07;;;;;;;0.90;0.70;;;14.80;99.90;;;;;;4974132;28;20166;-75
2022/07/10 05:48:33;;;;;;;0.90;0.80;;;14.70;99.90;;;;;;4973868;28;20209;-75
2022/07/10 05:50:58;;;;;;;1.97;1.23;;;14.80;99.90;;;;;;4974275;28;20190;-75
2022/07/10 05:53:24;;;;;;;2.03;1.03;;;14.60;99.90;;;;;;4974176;28;20758;-74
2022/07/10 05:55:49;;;;;;;1.13;1.03;;;14.70;99.90;;;;;;4974018;28;20683;-74
2022/07/10 05:58:16;;;;;;;2.00;1.10;;;14.50;99.90;;;;;;4974098;28;20659;-75
2022/07/10 06:00:43;;;;;;;5.43;1.40;;;14.80;99.90;;;;;;4973848;28;20194;-73
2022/07/10 06:03:09;;;;;;;5.47;1.77;;;14.80;99.90;;;;;;4973896;28;20495;-73
2022/07/10 06:05:36;;;;;;;2.27;1.00;;;14.90;99.90;;;;;;4973844;28;20814;-75
2022/07/10 06:08:01;;;;;;;4.40;1.50;;;14.90;99.90;;;;;;4973865;28;20504;-75
2022/07/10 06:10:27;;;;;;;2.40;0.93;;;14.90;99.90;;;;;;4973997;28;20804;-75
2022/07/10 06:12:52;;;;;;;1.63;1.03;;;14.80;99.90;;;;;;4973775;28;20227;-75
2022/07/10 06:15:18;;;;;;;1.33;1.00;;;14.70;99.90;;;;;;4973524;28;20560;-75
2022/07/10 06:17:43;;;;;;;3.00;1.40;;;14.80;99.90;;;;;;4973793;28;20177;-74
2022/07/10 06:20:10;;;;;;;2.10;1.20;;;14.80;99.90;;;;;;4973653;28;20212;-74
2022/07/10 06:22:35;;;;;;;3.00;1.47;;;14.80;99.90;;;;;;4973308;28;20235;-75
2022/07/10 06:25:04;;;;;;;2.03;0.80;;;14.50;99.90;;;;;;4973522;28;20611;-74
2022/07/10 06:27:30;;;;;;;1.97;1.13;;;14.40;99.90;;;;;;4954224;28;20641;-74
2022/07/10 06:29:56;;;;;;;1.47;1.30;;;14.70;99.90;;;;;;4954140;29;20465;-74
2022/07/10 06:32:22;;;;;;;1.30;0.73;;;14.90;99.90;;;;;;5036906;23;20486;-72
2022/07/10 06:34:48;;;;;;;1.70;1.00;;;14.90;99.90;;;;;;5032004;28;20402;-71
2022/07/10 06:37:13;;;;;;;1.10;1.00;;;15.00;99.90;;;;;;5031828;28;20395;-73
2022/07/10 06:39:39;;;;;;;1.13;1.03;;;15.10;99.90;;;;;;5031721;28;20185;-70
2022/07/10 06:42:05;;;;;;;2.70;1.10;;;15.30;99.90;;;;;;5017979;28;20287;-71
2022/07/10 06:44:31;;;;;;;1.20;1.10;;;15.30;99.90;;;;;;5011725;28;20174;-70
2022/07/10 06:49:43;;;;;;;1.47;0.77;;;15.20;99.90;;;;;;5011764;28;20501;-69
2022/07/10 06:52:09;;;;;;;2.30;1.43;;;15.10;99.90;;;;;;5011831;28;20432;-70
2022/07/10 06:54:35;;;;;;;1.90;1.40;;;15.30;99.90;;;;;;5012232;28;20418;-71
2022/07/10 06:57:01;;;;;;;1.07;0.97;;;15.30;99.90;;;;;;5011834;28;20906;-71
2022/07/10 06:59:27;;;;;;;0.83;0.83;;;15.20;99.90;;;;;;5001137;28;20375;-70
2022/07/10 07:01:52;;;;;;;1.80;1.10;;;15.30;99.90;;;;;;4992089;28;20436;-71
2022/07/10 07:04:18;;;;;;;1.23;1.13;;;15.50;99.90;;;;;;4992025;28;20173;-71
2022/07/10 07:06:43;;;;;;;5.03;1.37;;;15.60;99.90;;;;;;4992220;28;20196;-72
2022/07/10 07:09:09;;;;;;;3.27;1.20;;;16.10;99.90;;;;;;4992064;28;20250;-71
2022/07/10 07:11:34;;;;;;;3.73;0.80;;;16.30;99.90;;;;;;4992003;28;20190;-71
2022/07/10 07:14:00;;;;;;;1.57;1.00;;;16.10;99.90;;;;;;4992129;28;20170;-71
2022/07/10 07:16:38;;;;;;;2.70;0.90;;;16.40;99.90;;;;;;4992197;28;20166;-71
2022/07/10 07:19:05;;;;;;;2.13;0.80;;;16.50;99.90;;;;;;4992459;28;20247;-72
2022/07/10 07:24:18;;;;;;;0.97;0.87;;;16.90;99.90;;;;;;4992224;28;20390;-71
2022/07/10 07:26:46;;;;;;;3.30;1.03;;;16.60;99.90;;;;;;4992328;28;20417;-70
2022/07/10 07:29:13;;;;;;;3.40;1.73;;;16.90;99.90;;;;;;4992170;28;20473;-71
2022/07/10 07:31:38;;;;;;;3.07;0.97;;;17.20;99.90;;;;;;4992010;28;20855;-70
2022/07/10 07:34:04;;;;;;;1.43;0.90;;;17.30;99.90;;;;;;4991961;28;20408;-71
2022/07/10 07:36:30;;;;;;;2.27;0.90;;;17.50;99.90;;;;;;5009728;28;20173;-71
2022/07/10 07:38:56;;;;;;;1.03;0.90;;;17.30;99.90;;;;;;5015501;28;20582;-71
2022/07/10 07:41:22;;;;;;;3.13;1.27;;;17.20;99.90;;;;;;5015276;28;20429;-71
2022/07/10 07:43:48;;;;;;;4.83;1.90;;;17.50;99.90;;;;;;5015741;28;20187;-71
2022/07/10 07:46:14;;;;;;;1.63;1.10;;;17.20;99.90;;;;;;5015605;28;20825;-71
2022/07/10 07:48:40;;;;;;;2.37;1.20;;;17.70;99.90;;;;;;5016196;28;20454;-71
2022/07/10 07:51:05;;;;;;;3.20;1.57;;;18.20;99.90;;;;;;5016361;28;20194;-71
2022/07/10 07:53:31;;;;;;;3.03;1.53;;;18.30;99.90;;;;;;5016731;28;20287;-71
2022/07/10 07:55:56;;;;;;;4.67;1.07;;;18.70;99.90;;;;;;5016425;28;20165;-72
2022/07/10 07:58:22;;;;;;;0.80;0.80;;;18.80;99.90;;;;;;5016551;28;20576;-70
2022/07/10 08:00:47;;;;;;;2.63;1.10;;;18.70;99.90;;;;;;5016603;28;20193;-70
2022/07/10 08:03:13;;;;;;;2.77;0.80;;;18.90;99.90;;;;;;5015386;28;20186;-71
2022/07/10 08:05:39;;;;;;;9.23;1.33;;;19.00;99.90;;;;;;5015220;28;20178;-71
2022/07/10 08:08:07;;;;;;;3.23;1.43;;;18.80;99.90;;;;;;5015165;28;20299;-71
2022/07/10 08:10:33;;;;;;;1.17;1.00;;;18.70;99.90;;;;;;5015001;28;20170;-71
2022/07/10 08:12:58;;;;;;;2.47;1.37;;;18.80;99.90;;;;;;4997578;28;20405;-72
2022/07/10 08:15:24;;;;;;;2.30;1.00;;;19.60;99.90;;;;;;5014794;28;20772;-71
2022/07/10 08:17:55;;;;;;;2.10;0.80;;;20.80;99.90;;;;;;5015036;28;20502;-71
2022/07/10 08:20:22;;;;;;;3.90;0.90;;;21.10;99.90;;;;;;5029907;28;20607;-71
2022/07/10 08:22:48;;;;;;;2.03;1.20;;;21.50;99.90;;;;;;5014500;28;20442;-72
2022/07/10 08:25:14;;;;;;;2.23;1.07;;;22.40;99.30;;;;;;5014395;28;20410;-71
2022/07/10 08:27:40;;;;;;;1.47;0.70;;;23.10;97.40;;;;;;4996641;28;20415;-70
2022/07/10 08:30:08;;;;;;;3.00;0.90;;;22.70;96.20;;;;;;5014357;28;20829;-71
2022/07/10 08:32:35;;;;;;;4.17;0.97;;;21.90;96.00;;;;;;5012605;28;20539;-72
2022/07/10 08:35:01;;;;;;;2.20;1.00;;;20.90;97.70;;;;;;5012217;28;20412;-72
2022/07/10 08:37:26;;;;;;;2.07;0.90;;;20.50;99.10;;;;;;4994973;28;20417;-71
2022/07/10 08:39:52;;;;;;;1.47;1.00;;;19.90;99.50;;;;;;4994798;28;20256;-71
2022/07/10 08:42:18;;;;;;;1.83;0.80;;;18.80;99.90;;;;;;4994596;28;20195;-71
2022/07/10 08:44:44;;;;;;;1.23;0.80;;;19.40;99.90;;;;;;4994843;28;20183;-71
2022/07/10 08:47:13;;;;;;;2.63;1.00;;;18.80;99.90;;;;;;4994919;28;20419;-72
2022/07/10 08:49:46;;;;;;;1.43;0.83;;;19.30;99.90;;;;;;4994718;28;20191;-70
2022/07/10 08:52:34;;;;;;;3.00;1.00;;;18.50;99.90;;;;;;5002131;28;20431;-71
2022/07/10 08:54:59;;;;;;;1.67;1.13;;;19.10;99.90;;;;;;5013818;28;20420;-72
2022/07/10 08:57:26;;;;;;;3.50;0.87;;;19.10;99.90;;;;;;5006281;28;20779;-70
2022/07/10 08:59:52;;;;;;;1.10;1.00;;;18.50;99.90;;;;;;4994525;28;20828;-71
2022/07/10 09:02:17;;;;;;;2.63;1.40;;;18.20;99.90;;;;;;4994160;28;20426;-71
2022/07/10 09:04:43;;;;;;;2.80;1.17;;;18.00;99.90;;;;;;4994118;28;20460;-71
2022/07/10 09:07:09;;;;;;;5.60;1.67;;;17.90;99.90;;;;;;4994377;28;20187;-70
2022/07/10 09:09:54;;;;;;;1.17;0.83;;;17.30;99.90;;;;;;4995756;28;20205;-71
2022/07/10 09:12:21;;;;;;;0.80;0.80;;;17.40;99.90;;;;;;4994299;28;20808;-72
2022/07/10 09:14:47;;;;;;;1.67;1.10;;;17.40;99.90;;;;;;5007194;28;20780;-72
2022/07/10 09:17:13;;;;;;;1.63;0.83;;;17.60;99.90;;;;;;5014063;28;20404;-72
2022/07/10 09:19:39;;;;;;;1.83;0.90;;;17.40;99.90;;;;;;5013838;28;20227;-71
2022/07/10 09:22:07;;;;;;;2.40;1.20;;;17.70;99.90;;;;;;5012680;28;20602;-72
2022/07/10 09:24:38;;;;;;;1.93;0.90;;;18.20;99.90;;;;;;5012522;28;20964;-71
2022/07/10 09:27:04;;;;;;;2.37;1.00;;;18.40;99.90;;;;;;5013460;28;20408;-71
2022/07/10 09:29:31;;;;;;;2.80;1.10;;;18.30;99.90;;;;;;5012684;28;20853;-72
2022/07/10 09:31:59;;;;;;;2.97;1.00;;;18.80;99.90;;;;;;5008885;28;20838;-71
2022/07/10 09:34:45;;;;;;;1.57;0.93;;;19.10;99.90;;;;;;5004553;28;20461;-71
2022/07/10 09:37:28;;;;;;;2.73;0.93;;;19.40;99.90;;;;;;5013661;28;20415;-71
2022/07/10 09:39:55;;;;;;;3.73;1.10;;;19.00;99.90;;;;;;5013516;28;20832;-71
2022/07/10 09:42:30;;;;;;;2.40;1.10;;;19.20;99.90;;;;;;5013940;28;20863;-71
2022/07/10 09:45:11;;;;;;;3.63;1.00;;;19.20;99.90;;;;;;5013903;28;20914;-71
2022/07/10 09:47:41;;;;;;;2.53;1.03;;;19.60;99.90;;;;;;5013717;28;20993;-72
2022/07/10 09:50:28;;;;;;;1.47;1.33;;;19.40;99.90;;;;;;5013014;28;20469;-72
2022/07/10 09:52:57;;;;;;;3.13;0.90;;;19.20;99.90;;;;;;5013258;28;20865;-73
2022/07/10 09:55:26;;;;;;;1.20;1.10;;;19.10;99.50;;;;;;5013011;28;20410;-70
2022/07/10 09:57:55;;;;;;;2.40;1.03;;;19.50;99.90;;;;;;5012791;28;20400;-71
2022/07/10 10:00:25;;;;;;;7.10;1.30;;;19.60;99.30;;;;;;5013321;28;20405;-72
2022/07/10 10:02:58;;;;;;;2.00;0.80;;;19.90;99.90;;;;;;5013013;28;20495;-72
2022/07/10 10:05:45;;;;;;;4.90;1.97;;;19.30;99.30;;;;;;5011935;28;20897;-71
2022/07/10 10:08:15;;;;;;;5.93;1.87;;;19.60;99.70;;;;;;5013061;28;20441;-73
2022/07/10 10:10:49;;;;;;;5.37;1.10;;;19.60;99.70;;;;;;5012928;28;20400;-71
2022/07/10 10:13:17;;;;;;;1.93;0.97;;;19.60;98.50;;;;;;5012821;28;20422;-71
2022/07/10 10:15:45;;;;;;;4.03;1.20;;;19.30;98.90;;;;;;5012843;28;20417;-71
2022/07/10 10:18:12;;;;;;;3.03;1.10;;;19.40;99.40;;;;;;5014022;28;20544;-73
2022/07/10 10:20:38;;;;;;;2.10;1.20;;;19.40;99.30;;;;;;5014441;28;20439;-71
2022/07/10 10:23:10;;;;;;;2.20;1.27;;;19.70;98.60;;;;;;5014446;28;20786;-71
2022/07/10 10:25:37;;;;;;;2.23;1.10;;;19.80;98.10;;;;;;5013795;28;20281;-71
2022/07/10 10:28:06;;;;;;;2.00;1.70;;;19.60;98.20;;;;;;5013879;28;20406;-71
2022/07/10 10:30:32;;;;;;;2.47;1.93;;;19.10;98.80;;;;;;5013753;28;20410;-71
2022/07/10 10:32:59;;;;;;;2.07;1.07;;;19.20;99.10;;;;;;5012228;28;20430;-72
2022/07/10 10:35:48;;;;;;;2.60;0.90;;;19.30;98.60;;;;;;5013868;28;20402;-72
2022/07/10 10:38:15;;;;;;;2.40;1.50;;;19.30;98.40;;;;;;5013663;28;20399;-73
2022/07/10 10:40:42;;;;;;;2.33;1.03;;;19.30;98.60;;;;;;5027466;28;20788;-72
2022/07/10 10:43:22;;;;;;;2.40;1.00;;;19.70;98.00;;;;;;5018251;28;20417;-72
2022/07/10 10:45:49;;;;;;;2.90;1.17;;;19.60;98.70;;;;;;5012987;28;20418;-71
2022/07/10 10:48:16;;;;;;;1.30;0.90;;;20.00;97.30;;;;;;5012284;28;20818;-71
2022/07/10 10:50:45;;;;;;;2.20;0.97;;;19.80;97.50;;;;;;5012257;28;21031;-72
2022/07/10 10:53:26;;;;;;;3.50;1.10;;;20.00;96.30;;;;;;5012444;28;20422;-72
2022/07/10 10:56:03;;;;;;;1.00;0.90;;;19.70;96.40;;;;;;4998563;28;20417;-71
2022/07/10 10:58:42;;;;;;;1.13;0.90;;;19.90;96.80;;;;;;4992722;28;20402;-71
2022/07/10 11:01:20;;;;;;;4.60;1.53;;;19.70;97.10;;;;;;4993052;28;20458;-72
2022/07/10 11:04:04;;;;;;;1.53;0.83;;;19.90;96.40;;;;;;4993218;28;20430;-71
2022/07/10 11:06:47;;;;;;;1.87;0.90;;;19.40;96.80;;;;;;4995010;28;20414;-72
2022/07/10 11:09:32;;;;;;;1.73;1.00;;;19.60;96.70;;;;;;5014028;28;20795;-72
2022/07/10 11:12:08;;;;;;;1.57;0.90;;;19.50;97.40;;;;;;5017444;28;20453;-72
2022/07/10 11:14:36;;;;;;;4.73;1.30;;;19.20;97.50;;;;;;5017945;28;20410;-72
2022/07/10 11:17:02;;;;;;;2.00;0.80;;;19.10;98.50;;;;;;5017022;28;20409;-72
2022/07/10 11:19:29;;;;;;;3.67;1.40;;;19.70;97.90;;;;;;5016993;28;20437;-71
2022/07/10 11:22:29;;;;;;;4.67;1.53;;;20.00;97.10;;;;;;5015533;28;20434;-71
2022/07/10 11:25:19;;;;;;;3.90;0.97;;;20.70;97.00;;;;;;5015863;28;20412;-71
2022/07/10 11:27:50;;;;;;;2.83;1.47;;;19.90;96.70;;;;;;5015660;28;20394;-71
2022/07/10 11:30:16;;;;;;;5.97;1.13;;;20.30;96.60;;;;;;5015644;28;20410;-71
2022/07/10 11:32:41;;;;;;;3.50;1.20;;;19.40;97.50;;;;;;5015486;28;20449;-71
2022/07/10 11:35:14;;;;;;;4.17;1.20;;;19.80;97.70;;;;;;5015434;28;20585;-71
2022/07/10 11:37:52;;;;;;;1.80;1.13;;;20.00;97.10;;;;;;5015400;28;20187;-71
2022/07/10 11:40:22;;;;;;;1.83;0.93;;;20.10;96.90;;;;;;5015375;28;20429;-71
2022/07/10 11:42:55;;;;;;;4.90;1.20;;;20.60;97.00;;;;;;5015280;28;20839;-71
2022/07/10 11:45:29;;;;;;;5.27;1.03;;;20.40;96.60;;;;;;5015542;28;20480;-71
2022/07/10 11:47:55;;;;;;;2.87;1.40;;;20.60;96.10;;;;;;5015207;28;20817;-71
2022/07/10 11:50:21;;;;;;;1.20;0.80;;;20.80;95.20;;;;;;5015198;28;20413;-71
2022/07/10 11:52:48;;;;;;;2.83;1.20;;;20.60;95.70;;;;;;5015393;28;20822;-71
2022/07/10 11:55:19;;;;;;;2.20;1.00;;;20.50;96.50;;;;;;5015174;28;20423;-71
2022/07/10 11:57:48;;;;;;;2.83;1.40;;;20.70;96.50;;;;;;5014899;28;20487;-71
2022/07/10 12:00:34;;;;;;;3.27;2.57;;;20.50;96.50;;;;;;5015349;28;20486;-71
2022/07/10 12:03:17;;;;;;;3.80;1.40;;;20.50;96.10;;;;;;5013429;28;20558;-71
2022/07/10 12:05:43;;;;;;;2.47;1.00;;;20.00;96.40;;;;;;5014752;28;20424;-70
2022/07/10 12:08:08;;;;;;;4.47;1.33;;;20.20;96.80;;;;;;5015032;28;20492;-71
2022/07/10 12:10:34;;;;;;;4.57;1.50;;;19.80;96.40;;;;;;5015069;28;20527;-71
2022/07/10 12:13:13;;;;;;;1.23;0.73;;;19.70;96.90;;;;;;5015123;28;20208;-71
2022/07/10 12:15:41;;;;;;;2.00;1.27;;;20.20;96.00;;;;;;5014902;28;20411;-71
2022/07/10 12:18:09;;;;;;;2.77;1.20;;;20.30;95.60;;;;;;5015250;28;20403;-71
2022/07/10 12:20:37;;;;;;;1.57;0.87;;;20.80;94.40;;;;;;5014284;28;20775;-71
2022/07/10 12:23:04;;;;;;;2.93;1.30;;;20.60;94.10;;;;;;5014800;28;20505;-71
2022/07/10 12:25:30;;;;;;;1.73;0.97;;;20.50;93.80;;;;;;5014991;28;20789;-71
2022/07/10 12:27:59;;;;;;;3.30;1.30;;;20.20;94.60;;;;;;5014772;28;20406;-71
2022/07/10 12:30:36;;;;;;;6.27;1.03;;;20.10;95.20;;;;;;5014948;28;20179;-71
2022/07/10 12:33:19;;;;;;;1.77;1.00;;;20.00;95.30;;;;;;5015136;28;20413;-71
2022/07/10 12:35:57;;;;;;;2.63;1.00;;;19.90;96.00;;;;;;5014694;28;20751;-71
2022/07/10 12:38:33;;;;;;;1.00;0.90;;;20.20;95.70;;;;;;5014866;28;20403;-72
2022/07/10 12:41:12;;;;;;;1.50;0.80;;;20.50;95.40;;;;;;5014770;28;20464;-72
2022/07/10 12:43:39;;;;;;;2.90;0.93;;;20.30;95.30;;;;;;5014754;28;20770;-72
2022/07/10 12:46:21;;;;;;;1.77;1.10;;;20.40;95.40;;;;;;5014483;28;20432;-72
2022/07/10 12:49:09;;;;;;;1.57;1.47;;;20.10;95.40;;;;;;5014704;28;20455;-71
2022/07/10 12:51:47;;;;;;;1.30;0.90;;;20.10;95.60;;;;;;5014260;28;20551;-71
2022/07/10 12:54:31;;;;;;;1.63;0.80;;;19.80;96.30;;;;;;5014246;28;20454;-71
2022/07/10 12:56:58;;;;;;;3.33;0.90;;;20.20;95.50;;;;;;5014230;28;20420;-71
2022/07/10 12:59:24;;;;;;;2.60;1.20;;;20.10;96.30;;;;;;5014287;28;20424;-71
2022/07/10 13:01:50;;;;;;;1.73;1.43;;;19.90;95.80;;;;;;5014096;28;20419;-71